Marrowstone Island, Washington
Current Conditions -  °F | °C
As of 6:56 AM on Wednesday 22 Oct 2014 (Local Time) from KNUW Reporting Station
Broken Clouds Broken Clouds  
Wind Chill: 57°   Ceiling: 8500
Heat Index: 57°   Visibility: 10mi
Dew Point: 52°   Wind: 23mph
Humidity: 83%   Direction: 140°SE
Pressure: 29.63"   Gusts: 36mph
Location:  48.0545°N, 122.706°W
Report Text: KNUW 221356Z 14020G31KT 10SM FEW014 SCT025 BKN085 BKN130 BKN200 14/11 A2963 RMK AO2 PK WND 14033/1257 RAE49 SLP038 P0002 T01390111 $
Loading
Personal Weather Stations






























Interactive Weather Map
Tropical Storm Tracking
New forecast layout! Learn more

10-Day Weather Forecast

Advertisements
Track Severe Weather on mobile